Time;durP1;ratioP1;P1;durP2;ratioP2;P2;SDS_P1;SDS_P2;PMS_P1;PMS_P2;Temp;Humidity;BMP_temperature;BMP_pressure;BME280_temperature;BME280_humidity;BME280_pressure;Samples;Min_cycle;Max_cycle;Signal;HPM_P1;HPM_P2
2022/09/13 00:00:13;;;;;;;18.92;4.75;;;;;;;;;;5025536;28;20045;-69
2022/09/13 00:02:39;;;;;;;21.52;4.30;;;;;;;;;;5025060;28;20033;-68
2022/09/13 00:05:06;;;;;;;33.53;4.68;;;;;;;;;;5026067;28;20196;-68
2022/09/13 00:07:33;;;;;;;10.85;2.13;;;;;;;;;;5029822;28;20041;-67
2022/09/13 00:10:00;;;;;;;17.27;3.17;;;;;;;;;;5025600;28;20053;-68
2022/09/13 00:12:26;;;;;;;15.00;1.67;;;;;;;;;;5025243;28;20043;-69
2022/09/13 00:14:53;;;;;;;5.57;1.63;;;;;;;;;;5025815;28;20102;-71
2022/09/13 00:17:20;;;;;;;24.17;4.25;;;;;;;;;;5025426;28;20112;-67
2022/09/13 00:19:46;;;;;;;20.58;5.55;;;;;;;;;;5029592;28;20045;-67
2022/09/13 00:22:13;;;;;;;9.80;2.45;;;;;;;;;;5029415;28;20406;-68
2022/09/13 00:24:40;;;;;;;12.32;1.63;;;;;;;;;;5025222;28;20041;-68
2022/09/13 00:27:06;;;;;;;46.33;5.70;;;;;;;;;;5025041;28;20057;-68
2022/09/13 00:29:33;;;;;;;10.07;1.90;;;;;;;;;;5026049;28;20084;-68
2022/09/13 00:31:59;;;;;;;23.05;3.90;;;;;;;;;;5030714;28;20045;-68
2022/09/13 00:34:26;;;;;;;29.63;4.00;;;;;;;;;;5030841;28;20045;-68
2022/09/13 00:36:52;;;;;;;10.60;1.95;;;;;;;;;;5028270;28;20038;-68
2022/09/13 00:39:19;;;;;;;4.10;2.15;;;;;;;;;;5028735;28;20405;-68
2022/09/13 00:41:45;;;;;;;30.30;8.45;;;;;;;;;;5028674;28;20044;-65
2022/09/13 00:44:30;;;;;;;10.43;2.38;;;;;;;;;;5029039;28;20084;-67
2022/09/13 00:46:57;;;;;;;37.17;5.03;;;;;;;;;;5029066;28;20049;-67
2022/09/13 00:49:35;;;;;;;7.05;2.20;;;;;;;;;;5034554;28;20410;-66
2022/09/13 00:52:05;;;;;;;30.38;6.32;;;;;;;;;;5028966;28;20048;-66
2022/09/13 00:54:34;;;;;;;17.38;1.83;;;;;;;;;;5028088;28;20034;-66
2022/09/13 00:57:02;;;;;;;20.17;3.63;;;;;;;;;;5028759;28;20030;-66
2022/09/13 00:59:37;;;;;;;17.58;2.20;;;;;;;;;;5027935;28;20044;-66
2022/09/13 01:02:04;;;;;;;17.92;3.38;;;;;;;;;;5029439;28;20079;-67
2022/09/13 01:04:33;;;;;;;42.03;4.72;;;;;;;;;;5031324;28;20042;-66
2022/09/13 01:07:01;;;;;;;26.63;2.80;;;;;;;;;;5028162;28;20041;-65
2022/09/13 01:09:30;;;;;;;11.90;4.10;;;;;;;;;;5032119;28;20037;-66
2022/09/13 01:12:03;;;;;;;5.13;0.80;;;;;;;;;;5027967;28;20391;-66
2022/09/13 01:14:30;;;;;;;19.20;2.72;;;;;;;;;;5027778;28;20121;-66
2022/09/13 01:16:57;;;;;;;23.80;2.35;;;;;;;;;;5030249;28;20041;-66
2022/09/13 01:19:23;;;;;;;10.50;2.05;;;;;;;;;;5030481;28;20052;-65
2022/09/13 01:22:08;;;;;;;9.75;2.80;;;;;;;;;;5027845;28;20038;-69
2022/09/13 01:24:47;;;;;;;16.60;1.77;;;;;;;;;;5027394;28;20045;-68
2022/09/13 01:27:17;;;;;;;11.48;2.63;;;;;;;;;;5027802;28;20029;-67
2022/09/13 01:30:02;;;;;;;6.47;1.55;;;;;;;;;;5029347;28;20060;-68
2022/09/13 01:32:34;;;;;;;22.00;2.00;;;;;;;;;;5027323;28;20034;-66
2022/09/13 01:35:21;;;;;;;49.10;5.47;;;;;;;;;;5029608;28;20107;-66
2022/09/13 01:37:51;;;;;;;13.35;3.33;;;;;;;;;;5028268;28;20037;-66
2022/09/13 01:40:26;;;;;;;12.27;1.85;;;;;;;;;;5028822;28;20128;-66
2022/09/13 01:42:52;;;;;;;9.75;2.75;;;;;;;;;;5025887;28;20076;-66
2022/09/13 01:45:22;;;;;;;19.60;2.08;;;;;;;;;;5027344;28;20071;-66
2022/09/13 01:47:54;;;;;;;10.23;1.77;;;;;;;;;;5027470;28;20116;-71
2022/09/13 01:50:23;;;;;;;8.25;1.60;;;;;;;;;;5027151;28;20038;-68
2022/09/13 01:52:58;;;;;;;17.50;3.10;;;;;;;;;;5031231;28;20056;-68
2022/09/13 01:55:43;;;;;;;19.75;1.92;;;;;;;;;;5029782;28;20422;-68
2022/09/13 01:58:13;;;;;;;13.35;2.30;;;;;;;;;;5027372;28;20042;-69
2022/09/13 02:00:46;;;;;;;31.52;3.28;;;;;;;;;;5026599;28;20041;-68
2022/09/13 02:03:28;;;;;;;6.95;1.60;;;;;;;;;;5027338;28;20037;-68
2022/09/13 02:05:58;;;;;;;22.83;2.45;;;;;;;;;;5026360;28;20075;-69
2022/09/13 02:08:32;;;;;;;17.50;3.58;;;;;;;;;;5027075;28;20037;-68
2022/09/13 02:11:01;;;;;;;37.50;3.30;;;;;;;;;;5029251;28;20120;-68
2022/09/13 02:13:32;;;;;;;9.55;1.10;;;;;;;;;;5029883;28;20051;-68
2022/09/13 02:16:01;;;;;;;33.05;7.10;;;;;;;;;;5028746;28;20120;-68
2022/09/13 02:18:32;;;;;;;34.35;6.03;;;;;;;;;;5026414;28;20449;-68
2022/09/13 02:21:01;;;;;;;12.52;2.42;;;;;;;;;;5030837;28;20048;-68
2022/09/13 02:23:50;;;;;;;21.27;6.85;;;;;;;;;;5026755;28;20398;-68
2022/09/13 02:26:18;;;;;;;16.05;2.92;;;;;;;;;;5021176;28;20050;-67
2022/09/13 02:28:48;;;;;;;17.67;2.03;;;;;;;;;;5031342;28;20120;-69
2022/09/13 02:31:17;;;;;;;11.30;1.58;;;;;;;;;;5027571;28;20064;-69
2022/09/13 02:33:47;;;;;;;9.90;1.40;;;;;;;;;;5026646;28;20171;-64
2022/09/13 02:36:17;;;;;;;21.52;4.32;;;;;;;;;;5026001;28;20053;-64
2022/09/13 02:38:55;;;;;;;11.90;1.27;;;;;;;;;;5026417;28;20435;-66
2022/09/13 02:41:34;;;;;;;17.15;5.53;;;;;;;;;;5026501;28;20038;-66
2022/09/13 02:44:13;;;;;;;51.80;6.90;;;;;;;;;;5028215;28;20112;-65
2022/09/13 02:46:58;;;;;;;15.32;2.08;;;;;;;;;;5042933;28;20094;-65
2022/09/13 02:49:25;;;;;;;6.60;1.58;;;;;;;;;;5028628;28;20033;-66
2022/09/13 02:51:56;;;;;;;3.67;0.57;;;;;;;;;;5025978;28;20049;-65
2022/09/13 02:54:25;;;;;;;26.75;6.78;;;;;;;;;;5025693;28;20037;-69
2022/09/13 02:57:07;;;;;;;2.55;0.57;;;;;;;;;;5026713;28;20111;-69
2022/09/13 02:59:33;;;;;;;24.05;2.88;;;;;;;;;;5025773;28;20542;-69
2022/09/13 03:02:11;;;;;;;37.17;4.57;;;;;;;;;;5028605;28;20049;-69
2022/09/13 03:04:38;;;;;;;23.42;2.45;;;;;;;;;;5029836;28;20080;-68
2022/09/13 03:07:11;;;;;;;9.75;2.38;;;;;;;;;;5025788;28;20402;-67
2022/09/13 03:09:44;;;;;;;8.55;1.15;;;;;;;;;;5025827;28;20107;-67
2022/09/13 03:12:35;;;;;;;28.23;2.90;;;;;;;;;;5025762;28;20030;-67
2022/09/13 03:15:20;;;;;;;9.55;0.93;;;;;;;;;;5025957;28;20041;-68
2022/09/13 03:17:47;;;;;;;12.18;2.75;;;;;;;;;;5026004;28;20438;-67
2022/09/13 03:20:19;;;;;;;25.67;2.60;;;;;;;;;;5026232;28;20054;-66
2022/09/13 03:22:51;;;;;;;25.35;3.30;;;;;;;;;;5026961;28;20045;-68
2022/09/13 03:25:24;;;;;;;6.43;1.20;;;;;;;;;;5029396;28;20045;-65
2022/09/13 03:28:23;;;;;;;25.50;2.47;;;;;;;;;;5025777;28;20041;-65
2022/09/13 03:30:56;;;;;;;22.63;4.68;;;;;;;;;;4983798;28;20097;-65
2022/09/13 03:33:37;;;;;;;3.80;0.43;;;;;;;;;;4984609;28;20129;-65
2022/09/13 03:36:24;;;;;;;30.00;2.83;;;;;;;;;;4983566;28;20046;-65
2022/09/13 03:38:51;;;;;;;13.88;1.42;;;;;;;;;;4892333;29;20052;-69
2022/09/13 03:41:19;;;;;;;19.48;2.03;;;;;;;;;;4892654;29;20078;-69
2022/09/13 03:43:52;;;;;;;24.60;5.30;;;;;;;;;;4885943;29;20154;-70
2022/09/13 03:46:19;;;;;;;14.32;1.75;;;;;;;;;;4893111;29;20524;-69
2022/09/13 03:48:46;;;;;;;9.80;1.70;;;;;;;;;;4892115;29;20509;-68
2022/09/13 03:51:13;;;;;;;16.25;2.08;;;;;;;;;;4891914;29;20508;-69
2022/09/13 03:53:42;;;;;;;8.48;1.02;;;;;;;;;;4892392;29;20049;-69
2022/09/13 03:56:15;;;;;;;27.05;2.97;;;;;;;;;;4891560;29;20152;-68
2022/09/13 03:58:42;;;;;;;21.40;3.20;;;;;;;;;;4892999;29;20108;-69
2022/09/13 04:01:09;;;;;;;16.27;3.58;;;;;;;;;;4892493;29;20052;-69
2022/09/13 04:03:36;;;;;;;33.03;5.57;;;;;;;;;;4891950;29;20089;-69
2022/09/13 04:06:02;;;;;;;17.52;2.85;;;;;;;;;;4912447;29;20043;-67
2022/09/13 04:08:29;;;;;;;24.98;4.15;;;;;;;;;;4948388;29;20047;-69
2022/09/13 04:10:57;;;;;;;28.38;3.38;;;;;;;;;;4951644;29;20047;-70
2022/09/13 04:13:23;;;;;;;13.02;2.65;;;;;;;;;;4950817;29;20142;-75
2022/09/13 04:15:50;;;;;;;6.18;1.15;;;;;;;;;;4982700;28;20059;-75
2022/09/13 04:18:16;;;;;;;44.15;4.88;;;;;;;;;;5032707;28;20041;-74
2022/09/13 04:20:43;;;;;;;12.68;2.92;;;;;;;;;;5028816;28;20042;-72
2022/09/13 04:23:09;;;;;;;17.90;1.77;;;;;;;;;;5032852;28;20033;-69
2022/09/13 04:25:39;;;;;;;23.15;3.00;;;;;;;;;;5033304;28;20051;-66
2022/09/13 04:28:06;;;;;;;33.10;3.92;;;;;;;;;;5028935;28;20092;-70
2022/09/13 04:30:32;;;;;;;18.35;2.63;;;;;;;;;;5028931;28;20042;-69
2022/09/13 04:32:58;;;;;;;23.58;2.85;;;;;;;;;;5028741;28;20048;-71
2022/09/13 04:35:25;;;;;;;11.90;1.67;;;;;;;;;;5028354;28;20046;-70
2022/09/13 04:37:54;;;;;;;13.48;2.85;;;;;;;;;;5032533;28;20041;-71
2022/09/13 04:40:21;;;;;;;28.33;2.92;;;;;;;;;;5029751;28;20045;-71
2022/09/13 04:42:48;;;;;;;15.13;2.15;;;;;;;;;;5028479;28;20045;-71
2022/09/13 04:45:14;;;;;;;8.07;0.95;;;;;;;;;;5034923;28;20087;-71
2022/09/13 04:47:41;;;;;;;26.15;3.92;;;;;;;;;;5028347;28;20034;-71
2022/09/13 04:50:08;;;;;;;37.08;4.78;;;;;;;;;;5030085;28;20045;-66
2022/09/13 04:52:35;;;;;;;11.40;1.20;;;;;;;;;;5031937;28;20047;-66
2022/09/13 04:55:01;;;;;;;14.57;1.48;;;;;;;;;;5027795;28;20049;-67
2022/09/13 04:57:28;;;;;;;11.18;2.75;;;;;;;;;;5028525;28;20037;-66
2022/09/13 04:59:54;;;;;;;14.73;1.73;;;;;;;;;;5028487;28;20037;-68
2022/09/13 05:02:21;;;;;;;13.10;2.20;;;;;;;;;;5028252;28;20045;-70
2022/09/13 05:04:48;;;;;;;14.32;2.63;;;;;;;;;;5032802;28;20053;-68
2022/09/13 05:07:14;;;;;;;6.65;1.10;;;;;;;;;;5028147;28;20041;-72
2022/09/13 05:09:40;;;;;;;14.73;1.58;;;;;;;;;;5031945;28;20045;-71
2022/09/13 05:12:07;;;;;;;21.90;2.47;;;;;;;;;;5028144;28;20042;-72
2022/09/13 05:14:34;;;;;;;16.42;1.88;;;;;;;;;;5032908;28;20044;-75
2022/09/13 05:17:00;;;;;;;24.05;2.30;;;;;;;;;;5031947;28;20042;-67
2022/09/13 05:19:26;;;;;;;21.27;2.65;;;;;;;;;;5029875;28;20060;-69
2022/09/13 05:21:53;;;;;;;10.45;2.40;;;;;;;;;;5027690;28;20490;-66
2022/09/13 05:24:19;;;;;;;8.07;1.10;;;;;;;;;;5027503;28;20037;-68
2022/09/13 05:26:46;;;;;;;21.20;2.72;;;;;;;;;;5033227;28;20445;-66
2022/09/13 05:29:13;;;;;;;22.48;2.60;;;;;;;;;;5028568;28;20537;-67
2022/09/13 05:31:41;;;;;;;15.00;2.95;;;;;;;;;;5032070;28;20042;-67
2022/09/13 05:34:11;;;;;;;27.77;2.85;;;;;;;;;;5027608;28;20044;-67
2022/09/13 05:36:38;;;;;;;10.48;1.30;;;;;;;;;;5026936;28;20395;-76
2022/09/13 05:39:05;;;;;;;16.42;1.60;;;;;;;;;;5027525;28;20030;-67
2022/09/13 05:41:51;;;;;;;9.77;1.10;;;;;;;;;;5028190;28;20037;-70
2022/09/13 05:44:18;;;;;;;16.20;2.80;;;;;;;;;;5027466;28;20046;-69
2022/09/13 05:46:48;;;;;;;24.35;3.33;;;;;;;;;;5031903;28;20053;-72
2022/09/13 05:49:14;;;;;;;13.50;3.22;;;;;;;;;;5030221;28;20057;-72
2022/09/13 05:51:41;;;;;;;19.13;2.97;;;;;;;;;;5026905;28;20044;-70
2022/09/13 05:54:10;;;;;;;24.40;2.85;;;;;;;;;;5027127;28;20037;-78
2022/09/13 05:56:36;;;;;;;23.83;2.90;;;;;;;;;;5026574;28;20054;-69
2022/09/13 05:59:03;;;;;;;23.50;2.42;;;;;;;;;;5030397;28;20046;-82
2022/09/13 06:01:30;;;;;;;18.58;1.85;;;;;;;;;;5029436;28;20490;-71
2022/09/13 06:03:57;;;;;;;4.20;0.98;;;;;;;;;;5025783;28;20068;-67
2022/09/13 06:06:24;;;;;;;24.40;2.50;;;;;;;;;;5026278;28;20045;-67
2022/09/13 06:08:54;;;;;;;21.33;2.53;;;;;;;;;;5027200;28;20088;-64
2022/09/13 06:11:21;;;;;;;11.15;2.53;;;;;;;;;;5027537;28;20059;-66
2022/09/13 06:13:47;;;;;;;13.43;2.47;;;;;;;;;;5027849;28;20124;-70
2022/09/13 06:16:15;;;;;;;27.50;3.92;;;;;;;;;;5025694;28;20382;-71
2022/09/13 06:18:42;;;;;;;21.95;2.25;;;;;;;;;;5026092;28;20042;-68
2022/09/13 06:21:10;;;;;;;10.77;1.17;;;;;;;;;;5026295;28;20076;-68
2022/09/13 06:23:37;;;;;;;31.55;3.20;;;;;;;;;;5026481;28;20048;-68
2022/09/13 06:26:04;;;;;;;28.42;3.05;;;;;;;;;;5029388;28;20041;-71
2022/09/13 06:28:31;;;;;;;28.83;2.92;;;;;;;;;;5028726;28;20119;-72
2022/09/13 06:31:05;;;;;;;13.75;2.20;;;;;;;;;;5026749;28;20156;-72
2022/09/13 06:33:35;;;;;;;11.48;1.55;;;;;;;;;;5026673;28;20040;-72
2022/09/13 06:36:03;;;;;;;22.85;3.05;;;;;;;;;;5025976;28;20444;-72
2022/09/13 06:38:30;;;;;;;17.70;2.08;;;;;;;;;;5026457;28;20030;-72
2022/09/13 06:40:59;;;;;;;37.92;4.10;;;;;;;;;;5043147;28;20416;-72
2022/09/13 06:43:26;;;;;;;28.77;3.17;;;;;;;;;;5031096;28;20410;-72
2022/09/13 06:45:53;;;;;;;7.07;2.58;;;;;;;;;;5026408;28;20041;-72
2022/09/13 06:48:19;;;;;;;19.13;4.25;;;;;;;;;;5025927;28;20080;-72
2022/09/13 06:50:46;;;;;;;19.58;3.03;;;;;;;;;;5025966;28;20045;-72
2022/09/13 06:53:12;;;;;;;11.80;2.65;;;;;;;;;;5027342;28;20056;-72
2022/09/13 06:55:39;;;;;;;15.68;3.63;;;;;;;;;;5029798;28;20051;-72
2022/09/13 06:58:05;;;;;;;15.30;2.75;;;;;;;;;;5026001;28;20042;-72
2022/09/13 07:00:32;;;;;;;18.73;2.58;;;;;;;;;;5024815;28;20144;-72
2022/09/13 07:02:58;;;;;;;25.83;5.85;;;;;;;;;;5026522;28;20070;-72
2022/09/13 07:05:25;;;;;;;8.35;1.13;;;;;;;;;;5025466;28;20503;-72
2022/09/13 07:07:52;;;;;;;9.25;1.65;;;;;;;;;;5030607;28;20148;-72
2022/09/13 07:10:18;;;;;;;4.10;0.63;;;;;;;;;;5026329;28;20049;-72
2022/09/13 07:12:45;;;;;;;17.63;2.47;;;;;;;;;;5025677;28;20048;-72
2022/09/13 07:15:11;;;;;;;34.30;4.38;;;;;;;;;;5025827;28;20137;-71
2022/09/13 07:17:38;;;;;;;4.45;0.75;;;;;;;;;;5026430;28;20108;-71
2022/09/13 07:20:07;;;;;;;28.60;3.67;;;;;;;;;;5027978;28;20056;-71
2022/09/13 07:22:33;;;;;;;25.73;2.97;;;;;;;;;;5028435;28;20045;-70
2022/09/13 07:25:00;;;;;;;10.02;1.83;;;;;;;;;;5025768;28;20050;-71
2022/09/13 07:27:27;;;;;;;15.30;4.80;;;;;;;;;;5025685;28;20041;-71
2022/09/13 07:29:54;;;;;;;25.23;6.65;;;;;;;;;;5025270;28;20478;-69
2022/09/13 07:32:21;;;;;;;19.40;2.28;;;;;;;;;;5029948;28;20478;-70
2022/09/13 07:34:48;;;;;;;17.38;2.05;;;;;;;;;;5030468;28;20034;-70
2022/09/13 07:37:14;;;;;;;20.52;2.85;;;;;;;;;;5025677;28;20086;-70
2022/09/13 07:39:41;;;;;;;5.50;1.00;;;;;;;;;;5031348;28;20033;-70
2022/09/13 07:42:07;;;;;;;13.45;1.80;;;;;;;;;;5039073;28;20042;-70
2022/09/13 07:44:34;;;;;;;37.22;4.45;;;;;;;;;;5033173;28;20044;-70
2022/09/13 07:47:00;;;;;;;29.08;3.90;;;;;;;;;;5033123;28;20073;-70
2022/09/13 07:49:27;;;;;;;13.07;2.15;;;;;;;;;;5030989;28;20049;-67
2022/09/13 07:51:53;;;;;;;20.50;2.88;;;;;;;;;;5029419;28;20076;-69
2022/09/13 07:54:20;;;;;;;19.38;3.42;;;;;;;;;;5029397;28;20072;-68
2022/09/13 07:56:49;;;;;;;11.02;2.03;;;;;;;;;;5029417;28;20406;-68
2022/09/13 07:59:16;;;;;;;29.75;4.68;;;;;;;;;;5029566;28;20064;-68
2022/09/13 08:01:44;;;;;;;12.88;2.40;;;;;;;;;;5033208;28;20045;-69
2022/09/13 08:04:12;;;;;;;11.32;2.15;;;;;;;;;;5029065;28;20153;-69
2022/09/13 08:06:39;;;;;;;33.15;3.80;;;;;;;;;;5028389;28;20065;-70
2022/09/13 08:09:07;;;;;;;18.33;4.45;;;;;;;;;;5029359;28;20045;-70
2022/09/13 08:11:34;;;;;;;20.17;3.25;;;;;;;;;;5028999;28;20042;-70
2022/09/13 08:14:01;;;;;;;35.83;3.90;;;;;;;;;;5031610;28;20414;-70
2022/09/13 08:16:29;;;;;;;28.27;3.45;;;;;;;;;;5032691;28;20049;-80
2022/09/13 08:18:58;;;;;;;18.00;2.83;;;;;;;;;;5030617;28;20120;-78
2022/09/13 08:21:24;;;;;;;18.05;2.25;;;;;;;;;;5032162;28;20059;-67
2022/09/13 08:23:55;;;;;;;4.57;1.42;;;;;;;;;;5029074;28;20038;-74
2022/09/13 08:26:21;;;;;;;14.23;1.83;;;;;;;;;;5037922;28;20394;-72
2022/09/13 08:28:48;;;;;;;19.25;1.95;;;;;;;;;;5044519;28;20490;-73
2022/09/13 08:31:16;;;;;;;16.60;1.77;;;;;;;;;;5038431;28;20555;-73
2022/09/13 08:33:44;;;;;;;16.88;2.03;;;;;;;;;;5039340;28;20041;-71
2022/09/13 08:36:13;;;;;;;8.32;1.13;;;;;;;;;;5028238;28;20037;-69
2022/09/13 08:38:44;;;;;;;37.53;3.83;;;;;;;;;;5034958;28;20077;-69
2022/09/13 08:41:25;;;;;;;51.40;5.22;;;;;;;;;;5029684;28;20112;-69
2022/09/13 08:44:10;;;;;;;24.08;3.55;;;;;;;;;;5028548;28;20037;-69
2022/09/13 08:46:46;;;;;;;42.83;4.53;;;;;;;;;;5030872;28;20048;-69
2022/09/13 08:49:20;;;;;;;8.90;1.40;;;;;;;;;;5028807;28;20045;-69
2022/09/13 08:51:48;;;;;;;35.33;3.85;;;;;;;;;;5027096;28;20084;-69
2022/09/13 08:54:15;;;;;;;4.95;1.10;;;;;;;;;;5027455;28;20044;-69
2022/09/13 08:56:54;;;;;;;34.72;3.42;;;;;;;;;;5028250;28;20042;-70
2022/09/13 08:59:21;;;;;;;23.60;2.30;;;;;;;;;;5028559;28;20042;-68
2022/09/13 09:02:06;;;;;;;12.18;1.42;;;;;;;;;;5032456;28;20049;-70
2022/09/13 09:04:44;;;;;;;42.28;4.10;;;;;;;;;;5029754;28;20079;-69
2022/09/13 09:07:15;;;;;;;9.85;1.20;;;;;;;;;;5028067;28;20045;-69
2022/09/13 09:09:50;;;;;;;23.05;2.30;;;;;;;;;;5027543;28;20033;-67
2022/09/13 09:12:30;;;;;;;12.95;1.63;;;;;;;;;;5027601;28;20104;-66
2022/09/13 09:14:57;;;;;;;37.35;4.25;;;;;;;;;;5027570;28;20529;-66
2022/09/13 09:17:25;;;;;;;33.47;3.53;;;;;;;;;;5027967;28;20128;-66
2022/09/13 09:19:54;;;;;;;11.77;1.60;;;;;;;;;;5028789;28;20046;-66
2022/09/13 09:22:23;;;;;;;35.22;3.45;;;;;;;;;;5027568;28;20053;-67
2022/09/13 09:24:51;;;;;;;4.75;0.88;;;;;;;;;;5027484;28;20041;-68
2022/09/13 09:27:18;;;;;;;2.50;0.40;;;;;;;;;;5027752;28;20037;-68
2022/09/13 09:29:47;;;;;;;26.13;2.92;;;;;;;;;;5031075;28;20047;-69
2022/09/13 09:32:22;;;;;;;19.55;2.17;;;;;;;;;;5029401;28;20041;-69
2022/09/13 09:34:56;;;;;;;17.83;2.08;;;;;;;;;;5031673;28;20037;-69
2022/09/13 09:37:24;;;;;;;9.02;1.05;;;;;;;;;;5029726;28;20042;-69
2022/09/13 09:39:52;;;;;;;13.02;1.75;;;;;;;;;;5027233;28;20050;-69
2022/09/13 09:42:23;;;;;;;34.55;4.63;;;;;;;;;;5030536;28;20060;-69
2022/09/13 09:44:55;;;;;;;10.90;1.52;;;;;;;;;;5027165;28;20449;-68
2022/09/13 09:47:23;;;;;;;20.50;2.28;;;;;;;;;;5027996;28;20102;-68
2022/09/13 09:50:10;;;;;;;9.45;1.33;;;;;;;;;;5028480;28;20044;-68
2022/09/13 09:52:56;;;;;;;19.58;2.40;;;;;;;;;;5029915;28;20069;-68
2022/09/13 09:55:25;;;;;;;9.65;1.95;;;;;;;;;;5027753;28;20545;-69
2022/09/13 09:57:55;;;;;;;6.90;1.05;;;;;;;;;;5027047;28;20052;-69
2022/09/13 10:00:23;;;;;;;20.15;2.28;;;;;;;;;;5026689;28;20537;-69
2022/09/13 10:02:54;;;;;;;6.95;1.08;;;;;;;;;;5027354;28;20045;-69
2022/09/13 10:05:22;;;;;;;21.80;2.17;;;;;;;;;;5026750;28;20050;-68
2022/09/13 10:08:01;;;;;;;3.33;0.75;;;;;;;;;;5031367;28;20072;-69
2022/09/13 10:10:28;;;;;;;25.95;2.65;;;;;;;;;;5027789;28;20114;-68
2022/09/13 10:12:55;;;;;;;25.55;2.60;;;;;;;;;;5026404;28;20042;-68
2022/09/13 10:15:24;;;;;;;11.77;1.98;;;;;;;;;;5027343;28;20045;-69
2022/09/13 10:18:05;;;;;;;10.50;1.38;;;;;;;;;;5026839;28;20060;-68
2022/09/13 10:20:59;;;;;;;11.65;1.55;;;;;;;;;;5026434;28;20052;-69
2022/09/13 10:23:26;;;;;;;18.73;2.55;;;;;;;;;;5027090;28;20193;-69
2022/09/13 10:25:59;;;;;;;11.55;1.52;;;;;;;;;;5027301;28;20386;-69
2022/09/13 10:28:26;;;;;;;28.33;3.13;;;;;;;;;;5027055;28;20038;-68
2022/09/13 10:30:55;;;;;;;9.95;1.88;;;;;;;;;;5026630;28;20397;-69
2022/09/13 10:33:24;;;;;;;6.55;1.52;;;;;;;;;;5026662;28;20136;-69
2022/09/13 10:35:54;;;;;;;14.90;1.73;;;;;;;;;;5013990;28;20063;-69
2022/09/13 10:38:25;;;;;;;21.15;2.63;;;;;;;;;;5030477;28;20087;-69
2022/09/13 10:40:51;;;;;;;0.80;0.32;;;;;;;;;;5031788;28;20053;-68
2022/09/13 10:43:18;;;;;;;28.02;3.78;;;;;;;;;;5025643;28;20387;-68
2022/09/13 10:45:49;;;;;;;10.43;1.60;;;;;;;;;;5026304;28;20041;-69
2022/09/13 10:48:17;;;;;;;12.80;1.45;;;;;;;;;;5019535;28;20184;-72
2022/09/13 10:51:00;;;;;;;50.97;5.45;;;;;;;;;;5025315;28;20049;-69
2022/09/13 10:53:31;;;;;;;15.10;1.83;;;;;;;;;;5029912;28;20494;-71
2022/09/13 10:55:58;;;;;;;15.75;2.10;;;;;;;;;;5030454;28;20486;-73
2022/09/13 10:58:24;;;;;;;20.35;2.22;;;;;;;;;;5030148;28;20386;-72
2022/09/13 11:01:09;;;;;;;3.58;0.57;;;;;;;;;;5030187;28;20607;-69
2022/09/13 11:03:55;;;;;;;8.18;1.13;;;;;;;;;;5030217;28;20508;-74
2022/09/13 11:06:29;;;;;;;57.78;5.78;;;;;;;;;;5018160;28;20099;-68
2022/09/13 11:09:11;;;;;;;63.97;6.65;;;;;;;;;;5017605;28;20387;-73
2022/09/13 11:11:40;;;;;;;24.70;2.88;;;;;;;;;;5020008;28;20050;-82
2022/09/13 11:14:18;;;;;;;37.47;4.55;;;;;;;;;;5028280;28;20552;-69
2022/09/13 11:17:03;;;;;;;17.17;2.30;;;;;;;;;;5029325;28;20124;-79
2022/09/13 11:19:42;;;;;;;10.93;1.63;;;;;;;;;;5027477;28;20088;-74
2022/09/13 11:22:09;;;;;;;27.58;2.80;;;;;;;;;;5028364;28;20116;-81
2022/09/13 11:24:39;;;;;;;18.60;1.92;;;;;;;;;;5029488;28;20059;-76
2022/09/13 11:27:27;;;;;;;11.65;1.40;;;;;;;;;;5028043;28;20065;-75
2022/09/13 19:31:35;;;;;;;26.80;4.15;;;;;;;;;;5044511;28;20977;-69
2022/09/13 19:34:03;;;;;;;17.23;2.78;;;;;;;;;;5046132;28;20025;-66
2022/09/13 19:36:29;;;;;;;29.52;3.65;;;;;;;;;;5041966;28;20041;-68
2022/09/13 19:39:00;;;;;;;20.63;2.92;;;;;;;;;;5042501;28;20417;-67
2022/09/13 20:25:01;;;;;;;32.35;5.03;;;;;;;;;;5071818;27;20398;-63
2022/09/13 20:27:28;;;;;;;26.23;3.90;;;;;;;;;;5051529;28;20037;-64
2022/09/13 20:29:56;;;;;;;19.42;3.78;;;;;;;;;;5055620;28;20049;-63
2022/09/13 20:32:23;;;;;;;33.03;4.53;;;;;;;;;;5041414;28;20048;-62
2022/09/13 20:34:49;;;;;;;16.70;2.70;;;;;;;;;;5038140;28;20137;-61
2022/09/13 20:37:16;;;;;;;13.82;2.75;;;;;;;;;;5043555;28;20042;-61
2022/09/13 20:39:43;;;;;;;27.80;3.75;;;;;;;;;;5043606;28;20135;-61
2022/09/13 20:42:10;;;;;;;20.63;4.57;;;;;;;;;;5033820;28;20536;-64
2022/09/13 20:44:39;;;;;;;19.33;2.45;;;;;;;;;;5044597;28;20045;-63
2022/09/13 20:47:06;;;;;;;31.17;3.67;;;;;;;;;;5045574;28;20747;-63
2022/09/13 20:49:32;;;;;;;18.65;2.55;;;;;;;;;;5045357;28;20049;-63
2022/09/13 20:51:59;;;;;;;14.55;3.70;;;;;;;;;;5044530;28;20048;-63
2022/09/13 20:54:26;;;;;;;32.42;4.57;;;;;;;;;;5044488;28;20037;-63
2022/09/13 20:56:52;;;;;;;16.05;2.42;;;;;;;;;;5044708;28;20540;-66
2022/09/13 20:59:20;;;;;;;22.73;3.80;;;;;;;;;;5045339;28;20069;-66
2022/09/13 21:01:46;;;;;;;28.52;3.83;;;;;;;;;;5045370;28;20578;-66
2022/09/13 21:04:13;;;;;;;16.20;2.38;;;;;;;;;;5044685;28;20055;-66
2022/09/13 21:08:40;;;;;;;18.98;2.75;;;;;;;;;;5044430;28;20045;-66
2022/09/13 21:09:27;;;;;;;22.42;4.80;;;;;;;;;;5044574;28;20071;-65
2022/09/13 21:11:54;;;;;;;14.20;2.47;;;;;;;;;;5044824;28;20041;-64
2022/09/13 21:14:20;;;;;;;36.40;4.15;;;;;;;;;;5044455;28;20433;-64
2022/09/13 21:16:47;;;;;;;17.63;2.42;;;;;;;;;;5045113;28;20482;-64
2022/09/13 21:19:14;;;;;;;11.20;1.48;;;;;;;;;;5044547;28;20048;-64
2022/09/13 21:21:40;;;;;;;27.38;3.70;;;;;;;;;;5044197;28;20075;-66
2022/09/13 21:24:09;;;;;;;17.17;2.75;;;;;;;;;;5044733;28;20037;-66
2022/09/13 21:26:38;;;;;;;19.75;2.25;;;;;;;;;;5044481;28;20037;-67
2022/09/13 21:29:05;;;;;;;30.48;4.47;;;;;;;;;;5044862;28;20044;-64
2022/09/13 21:31:32;;;;;;;12.88;2.90;;;;;;;;;;5044359;28;20500;-65
2022/09/13 21:34:00;;;;;;;19.80;3.92;;;;;;;;;;5044323;28;20040;-69
2022/09/13 21:36:27;;;;;;;46.45;6.70;;;;;;;;;;5030217;28;20034;-67
2022/09/13 21:38:54;;;;;;;11.95;1.77;;;;;;;;;;5031154;28;20619;-68
2022/09/13 21:41:21;;;;;;;14.90;2.25;;;;;;;;;;5042059;28;20041;-69
2022/09/13 21:43:48;;;;;;;26.40;3.08;;;;;;;;;;5031207;28;20042;-69
2022/09/13 21:46:25;;;;;;;17.02;2.60;;;;;;;;;;5030687;28;20049;-67
2022/09/13 21:48:53;;;;;;;31.52;4.60;;;;;;;;;;5030585;28;20116;-66
2022/09/13 21:51:22;;;;;;;13.50;1.83;;;;;;;;;;5030670;28;20056;-65
2022/09/13 21:53:49;;;;;;;14.55;2.25;;;;;;;;;;5030845;28;20037;-63
2022/09/13 21:56:22;;;;;;;39.92;4.70;;;;;;;;;;5030580;28;20387;-63
2022/09/13 21:58:53;;;;;;;13.40;2.72;;;;;;;;;;5031381;28;20046;-64
2022/09/13 22:01:21;;;;;;;12.75;2.17;;;;;;;;;;5030985;28;20037;-64
2022/09/13 22:03:49;;;;;;;19.80;2.53;;;;;;;;;;5030071;28;20037;-63
2022/09/13 22:06:15;;;;;;;15.13;2.25;;;;;;;;;;5029948;28;20042;-64
2022/09/13 22:08:43;;;;;;;24.45;3.55;;;;;;;;;;5030509;28;20609;-65
2022/09/13 22:11:11;;;;;;;22.40;3.15;;;;;;;;;;5031318;28;20045;-64
2022/09/13 22:13:45;;;;;;;11.35;1.52;;;;;;;;;;5030509;28;20559;-64
2022/09/13 22:16:19;;;;;;;16.23;2.92;;;;;;;;;;5030065;28;20044;-64
2022/09/13 22:18:46;;;;;;;12.77;1.98;;;;;;;;;;5029785;28;20049;-64
2022/09/13 22:21:14;;;;;;;15.20;1.80;;;;;;;;;;5029958;28;20112;-65
2022/09/13 22:23:41;;;;;;;28.38;3.72;;;;;;;;;;5029838;28;20049;-64
2022/09/13 22:26:11;;;;;;;17.02;2.47;;;;;;;;;;5031293;28;20095;-65
2022/09/13 22:28:37;;;;;;;23.48;5.60;;;;;;;;;;5029899;28;20125;-66
2022/09/13 22:31:08;;;;;;;27.35;3.83;;;;;;;;;;5029843;28;20055;-65
2022/09/13 22:33:35;;;;;;;17.73;3.20;;;;;;;;;;5030075;28;20068;-65
2022/09/13 22:36:04;;;;;;;18.00;2.30;;;;;;;;;;5029682;28;20048;-66
2022/09/13 22:38:31;;;;;;;40.85;4.65;;;;;;;;;;5029560;28;20567;-66
2022/09/13 22:40:58;;;;;;;16.98;2.08;;;;;;;;;;5041167;28;20032;-66
2022/09/13 22:43:25;;;;;;;12.70;2.17;;;;;;;;;;5031300;28;20111;-65
2022/09/13 22:45:52;;;;;;;25.65;3.25;;;;;;;;;;5029355;28;20046;-66
2022/09/13 22:48:22;;;;;;;14.52;2.80;;;;;;;;;;5028755;28;20060;-66
2022/09/13 22:50:49;;;;;;;12.50;2.20;;;;;;;;;;5029622;28;20053;-65
2022/09/13 22:53:16;;;;;;;24.67;3.90;;;;;;;;;;5029581;28;20564;-65
2022/09/13 22:55:42;;;;;;;17.13;2.65;;;;;;;;;;5030249;28;20045;-64
2022/09/13 22:58:09;;;;;;;13.68;2.13;;;;;;;;;;5029760;28;20038;-65
2022/09/13 23:00:35;;;;;;;29.55;3.33;;;;;;;;;;5029354;28;20099;-64
2022/09/13 23:03:02;;;;;;;16.90;2.10;;;;;;;;;;5029658;28;20046;-64
2022/09/13 23:05:29;;;;;;;19.25;2.53;;;;;;;;;;5029302;28;20041;-64
2022/09/13 23:07:55;;;;;;;23.52;3.10;;;;;;;;;;5029918;28;21408;-66
2022/09/13 23:10:22;;;;;;;16.58;2.85;;;;;;;;;;5029194;28;20037;-67
2022/09/13 23:12:48;;;;;;;15.20;1.77;;;;;;;;;;5029323;28;20037;-64
2022/09/13 23:15:15;;;;;;;19.92;2.33;;;;;;;;;;5029154;28;20406;-64
2022/09/13 23:17:41;;;;;;;14.02;1.85;;;;;;;;;;5029447;28;20038;-64
2022/09/13 23:20:08;;;;;;;20.85;2.65;;;;;;;;;;5029871;28;20037;-64
2022/09/13 23:22:34;;;;;;;32.17;4.00;;;;;;;;;;5028674;28;20129;-62
2022/09/13 23:25:01;;;;;;;12.25;1.42;;;;;;;;;;5029062;28;20398;-64
2022/09/13 23:27:27;;;;;;;28.25;3.78;;;;;;;;;;5028653;28;20040;-64
2022/09/13 23:29:54;;;;;;;25.63;3.63;;;;;;;;;;5029246;28;20485;-65